• Join FlightAware (Why Join?)
  • Login
  • US Flag 
04:56AM EST


 

Airport Tracker/Info


-or-


 

Live Flight TrackerFlight Track Log ✈ FLG3388 ✈ 29-Jun-2013 ✈ KMSP - KSAT

Flight Track Log - Related Links

Times and Time Zones

All times are in EDT time to prevent confusion due to time zone crossing. See the FLG3388 flight status page for this flight to view local times or setup timezone preferences in your user account.

Time Position Orientation Groundspeed Altitude Reporting Facility
EDT Latitude Longitude Course Direction KTS MPH feet Rate Location/Type
11:01AM 44.9000 -93.2500 197° South 178 205 2,200  Level Minneapolis TRACON
11:02AM 44.8894 -93.2978 253° West 192 221 3,000 1,486 Climbing Minneapolis Center
11:03AM 44.8314 -93.3531 214° Southwest 275 316 4,900 2,129 Climbing Minneapolis Center
11:04AM 44.5249 -93.3738 142° Southeast  Level Estimated
11:04AM 44.7772 -93.2814 137° Southeast 276 318 7,400  Level Minneapolis Center
11:05AM 44.4059 -93.4240 141° Southeast  Level Estimated
11:05AM 44.7358 -93.2003 126° Southeast 283 326 9,500  Level Minneapolis Center
11:06AM 44.2868 -93.4741 120° Southeast  Level Estimated
11:06AM 44.6747 -93.0833 126° Southeast 315 362 11,400  Level Minneapolis Center
11:07AM 44.1720 -93.5221 197° South  Level Estimated
11:07AM 44.6158 -92.9706 126° Southeast 357 411 13,500  Level Minneapolis Center
11:08AM 44.5511 -92.8619 130° Southeast 366 421 15,400 1,935 Climbing Minneapolis Center
11:09AM 44.4508 -92.8033 157° South 388 447 17,500 1,887 Climbing Minneapolis Center
11:10AM 44.3508 -92.7481 158° South 388 447 19,300 1,694 Climbing Minneapolis Center
11:11AM 44.2147 -92.7639 185° South 424 488 21,000 1,548 Climbing Minneapolis Center
11:12AM 44.1014 -92.8128 197° South 425 489 22,500 1,452 Climbing Minneapolis Center
11:13AM 43.9850 -92.8639 198° South 432 497 24,000 1,306 Climbing Minneapolis Center
11:14AM 43.8672 -92.9136 197° South 440 506 25,200 1,210 Climbing Minneapolis Center
11:16AM 43.7408 -92.9683 197° South 453 521 26,500 1,104 Climbing Minneapolis Center
11:17AM 43.6186 -93.0206 197° South 460 529 27,500 1,008 Climbing Minneapolis Center
11:18AM 43.4939 -93.0725 197° South 469 540 28,600 1,500 Climbing Minneapolis Center
11:19AM 43.3458 -93.1356 197° South 470 541 30,600 1,463 Climbing Minneapolis Center
11:20AM 43.2486 -93.1769 197° South 467 537 31,600 968 Climbing Minneapolis Center
11:21AM 43.1053 -93.2353 197° South 460 529 32,600 960 Climbing Minneapolis Center
11:22AM 42.9861 -93.2858 197° South 455 524 33,600 677 Climbing Minneapolis Center
11:23AM 42.8667 -93.3344 197° South 453 521 34,000 194 Climbing Minneapolis Center
11:24AM 42.7167 -93.3964 197° South 471 542 34,000  Level Minneapolis Center
11:25AM 42.5911 -93.4483 197° South 475 547 34,000  Level Minneapolis Center
11:26AM 42.4653 -93.5003 197° South 477 549 34,000  Level Minneapolis Center
11:27AM 42.3375 -93.5506 196° South 483 556 34,000  Level Minneapolis Center
11:28AM 42.2367 -93.5928 197° South 480 552 34,000  Level Minneapolis Center
11:29AM 42.0578 -93.6633 196° South 483 556 34,000  Level Minneapolis Center
11:30AM 41.9228 -93.7167 196° South 483 556 34,000 242 Level Minneapolis Center
11:31AM 41.7947 -93.7683 197° South 484 557 34,500 581 Climbing Minneapolis Center
11:32AM 41.6675 -93.8181 196° South 482 555 35,200 581 Climbing Minneapolis Center
11:33AM 41.5411 -93.8686 197° South 479 551 35,700 384 Climbing Minneapolis Center
11:34AM 41.3853 -93.9306 197° South 487 560 36,000 144 Climbing Minneapolis Center
11:35AM 41.2567 -93.9825 197° South 488 562 36,000  Level Minneapolis Center
11:36AM 41.1311 -94.0317 196° South 482 555 36,000  Level Minneapolis Center
11:37AM 41.0075 -94.0789 196° South 474 545 36,000  Level Minneapolis Center
11:38AM 40.8817 -94.1278 196° South 473 544 36,000  Level Minneapolis Center
11:39AM 40.7297 -94.1875 197° South 477 549 36,000  Level Minneapolis Center
11:40AM 40.5992 -94.2378 196° South 484 557 36,000  Level Minneapolis Center
11:41AM 40.4669 -94.2881 196° South 490 564 36,000  Level Minneapolis Center
11:42AM 40.3372 -94.3383 196° South 493 567 36,000  Level Minneapolis Center
11:43AM 40.1811 -94.3975 196° South 492 566 36,000  Level Minneapolis Center
11:45AM 40.0386 -94.4494 196° South 496 571 36,000  Level Kansas City Center
11:46AM 39.9108 -94.4981 196° South 499 574 36,000  Level Kansas City Center
11:47AM 39.7628 -94.5542 196° South 495 570 36,000  Level Kansas City Center
11:48AM 39.6350 -94.6022 196° South 497 572 36,000  Level Kansas City Center
11:49AM 39.4844 -94.6581 196° South 501 577 36,000  Level Kansas City Center
11:50AM 39.3561 -94.7067 196° South 498 573 36,000  Level Kansas City Center
11:51AM 39.2033 -94.7611 195° South 503 579 36,000  Level Kansas City Center
11:52AM 39.0728 -94.8089 196° South 503 579 36,000  Level Kansas City Center
11:53AM 38.9444 -94.8567 196° South 497 572 36,000  Level Kansas City Center
11:54AM 38.7953 -94.9114 196° South 497 572 36,000  Level Kansas City Center
11:55AM 38.6683 -94.9572 196° South 493 567 36,000  Level Kansas City Center
11:56AM 38.5214 -95.0122 196° South 490 564 36,000  Level Kansas City Center
11:57AM 38.3967 -95.0553 195° South 486 559 36,000  Level Kansas City Center
11:58AM 38.2514 -95.1072 196° South 485 558 36,000  Level Kansas City Center
11:59AM 38.1264 -95.1497 195° South 484 557 36,000  Level Kansas City Center
12:00PM 38.0019 -95.1953 196° South 486 559 36,000  Level Kansas City Center
12:01PM 37.8508 -95.2506 196° South 485 558 36,000  Level Kansas City Center
12:02PM 37.7211 -95.2956 195° South 484 557 36,000  Level Kansas City Center
12:03PM 37.5911 -95.3403 195° South 483 556 36,000  Level Kansas City Center
12:04PM 37.4608 -95.3853 195° South 485 558 36,000  Level Kansas City Center
12:05PM 37.3317 -95.4308 196° South 482 555 36,000  Level Kansas City Center
12:06PM 37.2011 -95.4750 195° South 484 557 36,000  Level Kansas City Center
12:07PM 37.0453 -95.5297 196° South 484 557 36,000  Level Kansas City Center
12:08PM 36.9156 -95.5744 195° South 483 556 36,000  Level Kansas City Center
12:09PM 36.7867 -95.6189 195° South 482 555 36,000  Level Kansas City Center
12:10PM 36.6575 -95.6625 195° South 483 556 36,000  Level Kansas City Center
12:11PM 36.5103 -95.7131 195° South 482 555 36,000  Level Kansas City Center
12:13PM 36.3767 -95.7581 195° South 481 554 36,000  Level Kansas City Center
12:14PM 36.2486 -95.8017 195° South 481 554 36,000  Level Kansas City Center
12:15PM 36.1192 -95.8450 195° South 484 557 36,000  Level Kansas City Center
12:16PM 35.9897 -95.8883 195° South 483 556 36,000  Level Kansas City Center
12:17PM 35.8597 -95.9319 195° South 483 556 36,000  Level Kansas City Center
12:18PM 35.7039 -95.9842 195° South 483 556 36,000  Level Kansas City Center
12:19PM 35.5728 -96.0272 195° South 485 558 36,000  Level Kansas City Center
12:20PM 35.4428 -96.0700 195° South 485 558 36,000  Level Kansas City Center
12:21PM 35.3058 -96.1186 196° South 489 563 36,000  Level Fort Worth Center
12:22PM 35.1728 -96.1614 195° South 489 563 36,000  Level Fort Worth Center
12:23PM 35.0417 -96.2014 194° South 489 563 36,000  Level Fort Worth Center
12:24PM 34.9147 -96.2461 196° South 484 557 36,000  Level Fort Worth Center
12:25PM 34.7839 -96.2911 196° South 484 557 36,000  Level Fort Worth Center
12:26PM 34.6528 -96.3331 195° South 489 563 36,000  Level Fort Worth Center
12:27PM 34.5258 -96.3750 195° South 489 563 36,000  Level Fort Worth Center
12:28PM 34.3969 -96.4169 195° South 489 563 36,000  Level Fort Worth Center
12:29PM 34.2719 -96.4586 195° South 477 549 36,000  Level Fort Worth Center
12:30PM 34.1428 -96.4975 194° South 471 542 36,000  Level Fort Worth Center
12:31PM 34.0242 -96.5339 194° South 466 536 36,000  Level Fort Worth Center
12:32PM 33.8972 -96.5753 195° South 466 536 36,000  Level Fort Worth Center
12:33PM 33.7703 -96.6164 195° South 472 543 36,000  Level Fort Worth Center
12:35PM 33.5161 -96.6958 195° South 472 543 36,000  Level Fort Worth Center
12:36PM 33.3869 -96.7367 195° South 472 543 36,000  Level Fort Worth Center
12:37PM 33.2617 -96.7750 194° South 472 543 36,000  Level Fort Worth Center
12:38PM 33.1347 -96.8156 195° South 472 543 36,000  Level Fort Worth Center
12:39PM 33.0053 -96.8536 194° South 472 543 36,000  Level Fort Worth Center
12:40PM 32.8783 -96.8964 196° South 472 543 36,000  Level Fort Worth Center
12:41PM 32.7469 -96.9342 194° South 472 543 36,000  Level Fort Worth Center
12:42PM 32.6197 -96.9744 195° South 477 549 36,000  Level Fort Worth Center
12:43PM 32.4903 -97.0169 195° South 477 549 36,000  Level Fort Worth Center
12:44PM 32.3631 -97.0494 192° South 472 543 36,000  Level Fort Worth Center
12:45PM 32.2317 -97.0844 193° South 472 543 36,000  Level Fort Worth Center
12:46PM 32.1044 -97.1167 192° South 472 543 36,000  Level Fort Worth Center
12:47PM 31.9731 -97.1514 193° South 477 549 36,000  Level Fort Worth Center
12:48PM 31.8478 -97.1786 190° South 469 540 36,000  Level Fort Worth Center
12:50PM 31.6058 -97.2372 192° South 474 545 36,000  Level Houston Center
12:51PM 31.4756 -97.2686 192° South 473 544 36,000  Level Houston Center
12:52PM 31.3458 -97.3003 192° South 471 542 36,000  Level Houston Center
12:53PM 31.1956 -97.3375 192° South 470 541 36,000 -194 Level Houston Center
12:54PM 31.0672 -97.3692 192° South 471 542 35,600 -871 Descending Houston Center
12:55PM 30.9414 -97.4200 199° South 489 563 34,200 -1,355 Descending Houston Center
12:56PM 30.8100 -97.4725 199° South 503 579 32,800 -1,839 Descending Houston Center
12:57PM 30.6786 -97.5283 200° South 501 577 30,400 -2,829 Descending Houston Center
12:58PM 30.5289 -97.5925 200° South 490 564 27,000 -3,171 Descending Houston Center
12:59PM 30.4036 -97.6467 200° South 478 550 23,900 -2,855 Descending Houston Center
01:00PM 30.2831 -97.6983 200° South 461 531 21,100 -2,710 Descending Houston Center
01:01PM 30.1639 -97.7492 200° South 452 520 18,300 -2,692 Descending Houston Center
01:02PM 30.0783 -97.7858 200° South 434 499 16,300 -2,565 Descending Houston Center
01:03PM 29.9325 -97.8469 200° South 421 484 13,000 -1,574 Descending Houston Center
01:04PM 29.8481 -97.9481 226° Southwest 403 464 12,600 -898 Descending Houston Center
01:05PM 29.7683 -98.0369 224° Southwest 355 409 11,100 -1,512 Descending Houston Center
01:06PM 29.7044 -98.1106 225° Southwest 325 374 9,500 -1,900 Descending Houston Center
01:07PM 29.6456 -98.1800 226° Southwest 304 350 7,300 -1,924 Descending Houston Center
01:08PM 29.5789 -98.2553 224° Southwest 290 334 5,300 -1,739 Descending Houston Center